sensor_id;sensor_type;location;lat;lon;timestamp;P1;P2;P0
46573;PMS5003;32299;53.366;-1.544;2022-09-09T00:01:42;31;24;
46573;PMS5003;32299;53.366;-1.544;2022-09-09T00:04:19;40;28;
46573;PMS5003;32299;53.366;-1.544;2022-09-09T00:06:56;34;30;
46573;PMS5003;32299;53.366;-1.544;2022-09-09T00:09:30;46;30;
46573;PMS5003;32299;53.366;-1.544;2022-09-09T00:12:02;41;32;
46573;PMS5003;32299;53.366;-1.544;2022-09-09T00:14:39;41;33;
46573;PMS5003;32299;53.366;-1.544;2022-09-09T00:17:13;44;31;
46573;PMS5003;32299;53.366;-1.544;2022-09-09T00:19:49;49;29;
46573;PMS5003;32299;53.366;-1.544;2022-09-09T00:22:23;42;31;
46573;PMS5003;32299;53.366;-1.544;2022-09-09T00:24:52;35;31;
46573;PMS5003;32299;53.366;-1.544;2022-09-09T00:27:23;30;30;
46573;PMS5003;32299;53.366;-1.544;2022-09-09T00:29:56;39;28;
46573;PMS5003;32299;53.366;-1.544;2022-09-09T00:32:28;49;33;
46573;PMS5003;32299;53.366;-1.544;2022-09-09T00:34:56;42;33;
46573;PMS5003;32299;53.366;-1.544;2022-09-09T00:37:29;43;31;
46573;PMS5003;32299;53.366;-1.544;2022-09-09T00:39:59;42;32;
46573;PMS5003;32299;53.366;-1.544;2022-09-09T00:42:40;49;32;
46573;PMS5003;32299;53.366;-1.544;2022-09-09T00:45:12;49;31;
46573;PMS5003;32299;53.366;-1.544;2022-09-09T00:47:57;39;29;
46573;PMS5003;32299;53.366;-1.544;2022-09-09T00:50:31;53;36;
46573;PMS5003;32299;53.366;-1.544;2022-09-09T00:53:13;38;30;
46573;PMS5003;32299;53.366;-1.544;2022-09-09T00:55:51;41;34;
46573;PMS5003;32299;53.366;-1.544;2022-09-09T00:58:26;48;30;
46573;PMS5003;32299;53.366;-1.544;2022-09-09T01:00:55;43;30;
46573;PMS5003;32299;53.366;-1.544;2022-09-09T01:03:31;37;29;
46573;PMS5003;32299;53.366;-1.544;2022-09-09T01:06:02;39;32;
46573;PMS5003;32299;53.366;-1.544;2022-09-09T01:08:50;45;33;
46573;PMS5003;32299;53.366;-1.544;2022-09-09T01:11:31;42;33;
46573;PMS5003;32299;53.366;-1.544;2022-09-09T01:14:05;45;25;
46573;PMS5003;32299;53.366;-1.544;2022-09-09T01:16:43;45;26;
46573;PMS5003;32299;53.366;-1.544;2022-09-09T01:19:14;47;32;
46573;PMS5003;32299;53.366;-1.544;2022-09-09T01:21:49;47;30;
46573;PMS5003;32299;53.366;-1.544;2022-09-09T01:24:26;34;30;
46573;PMS5003;32299;53.366;-1.544;2022-09-09T01:27:02;42;29;
46573;PMS5003;32299;53.366;-1.544;2022-09-09T01:29:32;46;29;
46573;PMS5003;32299;53.366;-1.544;2022-09-09T01:32:00;42;31;
46573;PMS5003;32299;53.366;-1.544;2022-09-09T01:34:30;47;30;
46573;PMS5003;32299;53.366;-1.544;2022-09-09T01:37:03;41;26;
46573;PMS5003;32299;53.366;-1.544;2022-09-09T01:39:34;37;25;
46573;PMS5003;32299;53.366;-1.544;2022-09-09T01:42:02;42;29;
46573;PMS5003;32299;53.366;-1.544;2022-09-09T01:44:32;45;32;
46573;PMS5003;32299;53.366;-1.544;2022-09-09T01:47:00;33;26;
46573;PMS5003;32299;53.366;-1.544;2022-09-09T01:49:28;49;28;
46573;PMS5003;32299;53.366;-1.544;2022-09-09T01:51:55;28;27;
46573;PMS5003;32299;53.366;-1.544;2022-09-09T01:54:24;40;27;
46573;PMS5003;32299;53.366;-1.544;2022-09-09T01:56:58;28;24;
46573;PMS5003;32299;53.366;-1.544;2022-09-09T01:59:43;31;25;
46573;PMS5003;32299;53.366;-1.544;2022-09-09T02:02:17;35;24;
46573;PMS5003;32299;53.366;-1.544;2022-09-09T02:04:47;32;27;
46573;PMS5003;32299;53.366;-1.544;2022-09-09T02:07:23;26;23;
46573;PMS5003;32299;53.366;-1.544;2022-09-09T02:10:09;39;26;
46573;PMS5003;32299;53.366;-1.544;2022-09-09T02:12:39;38;31;
46573;PMS5003;32299;53.366;-1.544;2022-09-09T02:15:12;33;31;
46573;PMS5003;32299;53.366;-1.544;2022-09-09T02:17:44;28;27;
46573;PMS5003;32299;53.366;-1.544;2022-09-09T02:20:16;31;28;
46573;PMS5003;32299;53.366;-1.544;2022-09-09T02:22:47;34;27;
46573;PMS5003;32299;53.366;-1.544;2022-09-09T02:25:19;30;25;
46573;PMS5003;32299;53.366;-1.544;2022-09-09T02:27:49;36;28;
46573;PMS5003;32299;53.366;-1.544;2022-09-09T02:30:18;44;30;
46573;PMS5003;32299;53.366;-1.544;2022-09-09T02:32:46;45;25;
46573;PMS5003;32299;53.366;-1.544;2022-09-09T02:35:18;34;28;
46573;PMS5003;32299;53.366;-1.544;2022-09-09T02:37:49;45;29;
46573;PMS5003;32299;53.366;-1.544;2022-09-09T02:40:19;32;28;
46573;PMS5003;32299;53.366;-1.544;2022-09-09T02:42:46;37;29;
46573;PMS5003;32299;53.366;-1.544;2022-09-09T02:45:16;31;26;
46573;PMS5003;32299;53.366;-1.544;2022-09-09T02:47:49;39;28;
46573;PMS5003;32299;53.366;-1.544;2022-09-09T02:50:24;43;25;
46573;PMS5003;32299;53.366;-1.544;2022-09-09T02:53:01;30;25;
46573;PMS5003;32299;53.366;-1.544;2022-09-09T02:55:38;36;25;
46573;PMS5003;32299;53.366;-1.544;2022-09-09T02:58:07;25;25;
46573;PMS5003;32299;53.366;-1.544;2022-09-09T03:00:36;44;26;
46573;PMS5003;32299;53.366;-1.544;2022-09-09T03:03:06;44;28;
46573;PMS5003;32299;53.366;-1.544;2022-09-09T03:05:34;38;26;
46573;PMS5003;32299;53.366;-1.544;2022-09-09T03:08:02;35;24;
46573;PMS5003;32299;53.366;-1.544;2022-09-09T03:10:29;35;24;
46573;PMS5003;32299;53.366;-1.544;2022-09-09T03:12:57;42;27;
46573;PMS5003;32299;53.366;-1.544;2022-09-09T03:15:24;29;21;
46573;PMS5003;32299;53.366;-1.544;2022-09-09T03:17:52;36;24;
46573;PMS5003;32299;53.366;-1.544;2022-09-09T03:20:19;44;23;
46573;PMS5003;32299;53.366;-1.544;2022-09-09T03:22:46;29;25;
46573;PMS5003;32299;53.366;-1.544;2022-09-09T03:25:13;36;25;
46573;PMS5003;32299;53.366;-1.544;2022-09-09T03:27:40;32;25;
46573;PMS5003;32299;53.366;-1.544;2022-09-09T03:30:08;36;26;
46573;PMS5003;32299;53.366;-1.544;2022-09-09T03:32:36;35;25;
46573;PMS5003;32299;53.366;-1.544;2022-09-09T03:35:03;43;28;
46573;PMS5003;32299;53.366;-1.544;2022-09-09T03:37:30;29;23;
46573;PMS5003;32299;53.366;-1.544;2022-09-09T03:39:58;32;21;
46573;PMS5003;32299;53.366;-1.544;2022-09-09T03:42:25;25;23;
46573;PMS5003;32299;53.366;-1.544;2022-09-09T03:44:52;36;25;
46573;PMS5003;32299;53.366;-1.544;2022-09-09T03:47:20;23;21;
46573;PMS5003;32299;53.366;-1.544;2022-09-09T03:49:47;42;23;
46573;PMS5003;32299;53.366;-1.544;2022-09-09T03:52:15;33;25;
46573;PMS5003;32299;53.366;-1.544;2022-09-09T03:54:42;34;24;
46573;PMS5003;32299;53.366;-1.544;2022-09-09T03:57:09;36;26;
46573;PMS5003;32299;53.366;-1.544;2022-09-09T03:59:36;35;27;
46573;PMS5003;32299;53.366;-1.544;2022-09-09T04:02:03;31;26;
46573;PMS5003;32299;53.366;-1.544;2022-09-09T04:04:30;29;24;
46573;PMS5003;32299;53.366;-1.544;2022-09-09T04:06:58;24;24;
46573;PMS5003;32299;53.366;-1.544;2022-09-09T04:09:25;40;25;
46573;PMS5003;32299;53.366;-1.544;2022-09-09T04:11:52;28;20;
46573;PMS5003;32299;53.366;-1.544;2022-09-09T04:14:20;27;23;
46573;PMS5003;32299;53.366;-1.544;2022-09-09T04:16:47;33;24;
46573;PMS5003;32299;53.366;-1.544;2022-09-09T04:19:14;31;25;
46573;PMS5003;32299;53.366;-1.544;2022-09-09T04:21:41;25;21;
46573;PMS5003;32299;53.366;-1.544;2022-09-09T04:24:09;38;26;
46573;PMS5003;32299;53.366;-1.544;2022-09-09T04:26:37;27;23;
46573;PMS5003;32299;53.366;-1.544;2022-09-09T04:29:05;36;26;
46573;PMS5003;32299;53.366;-1.544;2022-09-09T04:31:32;31;23;
46573;PMS5003;32299;53.366;-1.544;2022-09-09T04:34:00;30;24;
46573;PMS5003;32299;53.366;-1.544;2022-09-09T04:36:27;35;20;
46573;PMS5003;32299;53.366;-1.544;2022-09-09T04:38:55;28;26;
46573;PMS5003;32299;53.366;-1.544;2022-09-09T04:41:22;27;22;
46573;PMS5003;32299;53.366;-1.544;2022-09-09T04:43:49;22;20;
46573;PMS5003;32299;53.366;-1.544;2022-09-09T04:46:16;21;21;
46573;PMS5003;32299;53.366;-1.544;2022-09-09T04:48:43;21;20;
46573;PMS5003;32299;53.366;-1.544;2022-09-09T04:51:11;28;21;
46573;PMS5003;32299;53.366;-1.544;2022-09-09T04:53:40;19;18;
46573;PMS5003;32299;53.366;-1.544;2022-09-09T04:56:07;28;17;
46573;PMS5003;32299;53.366;-1.544;2022-09-09T04:58:37;32;20;
46573;PMS5003;32299;53.366;-1.544;2022-09-09T05:01:05;20;20;
46573;PMS5003;32299;53.366;-1.544;2022-09-09T05:03:33;33;20;
46573;PMS5003;32299;53.366;-1.544;2022-09-09T05:06:02;28;22;
46573;PMS5003;32299;53.366;-1.544;2022-09-09T05:08:30;31;20;
46573;PMS5003;32299;53.366;-1.544;2022-09-09T05:10:57;35;25;
46573;PMS5003;32299;53.366;-1.544;2022-09-09T05:13:25;39;25;
46573;PMS5003;32299;53.366;-1.544;2022-09-09T05:15:53;22;19;
46573;PMS5003;32299;53.366;-1.544;2022-09-09T05:18:21;39;23;
46573;PMS5003;32299;53.366;-1.544;2022-09-09T05:20:49;24;22;
46573;PMS5003;32299;53.366;-1.544;2022-09-09T05:23:16;29;25;
46573;PMS5003;32299;53.366;-1.544;2022-09-09T05:25:43;30;24;
46573;PMS5003;32299;53.366;-1.544;2022-09-09T05:28:10;22;20;
46573;PMS5003;32299;53.366;-1.544;2022-09-09T05:30:38;32;24;
46573;PMS5003;32299;53.366;-1.544;2022-09-09T05:33:05;27;24;
46573;PMS5003;32299;53.366;-1.544;2022-09-09T05:35:32;34;24;
46573;PMS5003;32299;53.366;-1.544;2022-09-09T05:37:59;29;22;
46573;PMS5003;32299;53.366;-1.544;2022-09-09T05:40:27;24;22;
46573;PMS5003;32299;53.366;-1.544;2022-09-09T05:42:54;28;25;
46573;PMS5003;32299;53.366;-1.544;2022-09-09T05:45:25;34;22;
46573;PMS5003;32299;53.366;-1.544;2022-09-09T05:47:53;35;24;
46573;PMS5003;32299;53.366;-1.544;2022-09-09T05:50:20;25;21;
46573;PMS5003;32299;53.366;-1.544;2022-09-09T05:52:47;24;22;
46573;PMS5003;32299;53.366;-1.544;2022-09-09T05:55:14;34;23;
46573;PMS5003;32299;53.366;-1.544;2022-09-09T05:57:41;34;23;
46573;PMS5003;32299;53.366;-1.544;2022-09-09T06:00:09;29;26;
46573;PMS5003;32299;53.366;-1.544;2022-09-09T06:02:37;41;25;
46573;PMS5003;32299;53.366;-1.544;2022-09-09T06:05:05;26;25;
46573;PMS5003;32299;53.366;-1.544;2022-09-09T06:07:33;27;25;
46573;PMS5003;32299;53.366;-1.544;2022-09-09T06:10:00;31;29;
46573;PMS5003;32299;53.366;-1.544;2022-09-09T06:12:27;40;28;
46573;PMS5003;32299;53.366;-1.544;2022-09-09T06:14:55;51;32;
46573;PMS5003;32299;53.366;-1.544;2022-09-09T06:17:22;25;22;
46573;PMS5003;32299;53.366;-1.544;2022-09-09T06:19:49;40;29;
46573;PMS5003;32299;53.366;-1.544;2022-09-09T06:22:17;30;28;
46573;PMS5003;32299;53.366;-1.544;2022-09-09T06:24:43;34;27;
46573;PMS5003;32299;53.366;-1.544;2022-09-09T06:27:10;40;29;
46573;PMS5003;32299;53.366;-1.544;2022-09-09T06:29:37;39;27;
46573;PMS5003;32299;53.366;-1.544;2022-09-09T06:32:04;26;25;
46573;PMS5003;32299;53.366;-1.544;2022-09-09T06:34:32;32;24;
46573;PMS5003;32299;53.366;-1.544;2022-09-09T06:36:59;41;28;
46573;PMS5003;32299;53.366;-1.544;2022-09-09T06:39:27;44;30;
46573;PMS5003;32299;53.366;-1.544;2022-09-09T06:41:53;24;24;
46573;PMS5003;32299;53.366;-1.544;2022-09-09T06:44:20;30;24;
46573;PMS5003;32299;53.366;-1.544;2022-09-09T06:46:47;36;28;
46573;PMS5003;32299;53.366;-1.544;2022-09-09T06:49:14;38;28;
46573;PMS5003;32299;53.366;-1.544;2022-09-09T06:51:41;40;27;
46573;PMS5003;32299;53.366;-1.544;2022-09-09T06:54:09;26;25;
46573;PMS5003;32299;53.366;-1.544;2022-09-09T06:56:38;27;24;
46573;PMS5003;32299;53.366;-1.544;2022-09-09T06:59:06;32;25;
46573;PMS5003;32299;53.366;-1.544;2022-09-09T07:01:35;29;25;
46573;PMS5003;32299;53.366;-1.544;2022-09-09T07:04:04;28;25;
46573;PMS5003;32299;53.366;-1.544;2022-09-09T07:06:32;37;23;
46573;PMS5003;32299;53.366;-1.544;2022-09-09T07:09:01;34;25;
46573;PMS5003;32299;53.366;-1.544;2022-09-09T07:11:31;23;21;
46573;PMS5003;32299;53.366;-1.544;2022-09-09T07:13:59;35;25;
46573;PMS5003;32299;53.366;-1.544;2022-09-09T07:16:27;41;22;
46573;PMS5003;32299;53.366;-1.544;2022-09-09T07:18:55;34;20;
46573;PMS5003;32299;53.366;-1.544;2022-09-09T07:21:23;26;24;
46573;PMS5003;32299;53.366;-1.544;2022-09-09T07:23:52;36;25;
46573;PMS5003;32299;53.366;-1.544;2022-09-09T07:26:20;27;24;
46573;PMS5003;32299;53.366;-1.544;2022-09-09T07:28:49;37;23;
46573;PMS5003;32299;53.366;-1.544;2022-09-09T07:31:16;22;20;
46573;PMS5003;32299;53.366;-1.544;2022-09-09T07:33:45;26;22;
46573;PMS5003;32299;53.366;-1.544;2022-09-09T07:36:14;38;25;
46573;PMS5003;32299;53.366;-1.544;2022-09-09T07:38:44;23;22;
46573;PMS5003;32299;53.366;-1.544;2022-09-09T07:41:13;22;21;
46573;PMS5003;32299;53.366;-1.544;2022-09-09T07:43:42;27;24;
46573;PMS5003;32299;53.366;-1.544;2022-09-09T07:46:11;33;21;
46573;PMS5003;32299;53.366;-1.544;2022-09-09T07:48:43;28;23;
46573;PMS5003;32299;53.366;-1.544;2022-09-09T07:51:11;22;19;
46573;PMS5003;32299;53.366;-1.544;2022-09-09T07:53:40;19;19;
46573;PMS5003;32299;53.366;-1.544;2022-09-09T07:56:07;32;20;
46573;PMS5003;32299;53.366;-1.544;2022-09-09T07:58:36;29;24;
46573;PMS5003;32299;53.366;-1.544;2022-09-09T08:01:06;29;23;
46573;PMS5003;32299;53.366;-1.544;2022-09-09T08:03:35;34;19;
46573;PMS5003;32299;53.366;-1.544;2022-09-09T08:06:03;31;25;
46573;PMS5003;32299;53.366;-1.544;2022-09-09T08:08:32;23;19;
46573;PMS5003;32299;53.366;-1.544;2022-09-09T08:11:02;36;23;
46573;PMS5003;32299;53.366;-1.544;2022-09-09T08:13:31;37;23;
46573;PMS5003;32299;53.366;-1.544;2022-09-09T08:16:03;25;23;
46573;PMS5003;32299;53.366;-1.544;2022-09-09T08:18:32;37;21;
46573;PMS5003;32299;53.366;-1.544;2022-09-09T08:21:08;20;20;
46573;PMS5003;32299;53.366;-1.544;2022-09-09T08:23:36;21;16;
46573;PMS5003;32299;53.366;-1.544;2022-09-09T08:26:05;19;17;
46573;PMS5003;32299;53.366;-1.544;2022-09-09T08:28:33;22;18;
46573;PMS5003;32299;53.366;-1.544;2022-09-09T08:31:09;25;19;
46573;PMS5003;32299;53.366;-1.544;2022-09-09T08:33:38;17;16;
46573;PMS5003;32299;53.366;-1.544;2022-09-09T08:36:06;24;19;
46573;PMS5003;32299;53.366;-1.544;2022-09-09T08:38:36;27;16;
46573;PMS5003;32299;53.366;-1.544;2022-09-09T08:41:07;15;15;
46573;PMS5003;32299;53.366;-1.544;2022-09-09T08:43:50;16;16;
46573;PMS5003;32299;53.366;-1.544;2022-09-09T08:46:29;21;17;
46573;PMS5003;32299;53.366;-1.544;2022-09-09T08:49:05;16;16;
46573;PMS5003;32299;53.366;-1.544;2022-09-09T08:51:44;16;15;
46573;PMS5003;32299;53.366;-1.544;2022-09-09T08:54:12;25;18;
46573;PMS5003;32299;53.366;-1.544;2022-09-09T08:56:40;24;17;
46573;PMS5003;32299;53.366;-1.544;2022-09-09T08:59:09;28;17;
46573;PMS5003;32299;53.366;-1.544;2022-09-09T09:01:45;16;13;
46573;PMS5003;32299;53.366;-1.544;2022-09-09T09:04:28;19;15;
46573;PMS5003;32299;53.366;-1.544;2022-09-09T09:07:06;24;17;
46573;PMS5003;32299;53.366;-1.544;2022-09-09T09:09:44;19;16;
46573;PMS5003;32299;53.366;-1.544;2022-09-09T09:12:19;16;14;
46573;PMS5003;32299;53.366;-1.544;2022-09-09T09:14:49;31;16;
46573;PMS5003;32299;53.366;-1.544;2022-09-09T09:17:17;13;12;
46573;PMS5003;32299;53.366;-1.544;2022-09-09T09:19:46;13;13;
46573;PMS5003;32299;53.366;-1.544;2022-09-09T09:22:17;11;11;
46573;PMS5003;32299;53.366;-1.544;2022-09-09T09:24:50;25;10;
46573;PMS5003;32299;53.366;-1.544;2022-09-09T09:27:21;12;10;
46573;PMS5003;32299;53.366;-1.544;2022-09-09T09:29:59;13;10;
46573;PMS5003;32299;53.366;-1.544;2022-09-09T09:32:30;11;9;
46573;PMS5003;32299;53.366;-1.544;2022-09-09T09:35:01;13;13;
46573;PMS5003;32299;53.366;-1.544;2022-09-09T09:37:36;8;8;
46573;PMS5003;32299;53.366;-1.544;2022-09-09T09:40:10;10;9;
46573;PMS5003;32299;53.366;-1.544;2022-09-09T09:42:47;15;9;
46573;PMS5003;32299;53.366;-1.544;2022-09-09T09:45:18;9;9;
46573;PMS5003;32299;53.366;-1.544;2022-09-09T09:48:03;10;9;
46573;PMS5003;32299;53.366;-1.544;2022-09-09T09:50:32;12;9;
46573;PMS5003;32299;53.366;-1.544;2022-09-09T09:53:01;16;8;
46573;PMS5003;32299;53.366;-1.544;2022-09-09T09:55:31;8;8;
46573;PMS5003;32299;53.366;-1.544;2022-09-09T09:58:02;11;7;
46573;PMS5003;32299;53.366;-1.544;2022-09-09T10:00:31;6;6;
46573;PMS5003;32299;53.366;-1.544;2022-09-09T10:03:00;11;7;
46573;PMS5003;32299;53.366;-1.544;2022-09-09T10:05:28;4;4;
46573;PMS5003;32299;53.366;-1.544;2022-09-09T10:08:04;11;8;
46573;PMS5003;32299;53.366;-1.544;2022-09-09T10:10:40;10;9;
46573;PMS5003;32299;53.366;-1.544;2022-09-09T10:13:17;9;8;
46573;PMS5003;32299;53.366;-1.544;2022-09-09T10:15:52;10;8;
46573;PMS5003;32299;53.366;-1.544;2022-09-09T10:18:37;10;9;
46573;PMS5003;32299;53.366;-1.544;2022-09-09T10:21:16;11;10;
46573;PMS5003;32299;53.366;-1.544;2022-09-09T10:23:57;11;8;
46573;PMS5003;32299;53.366;-1.544;2022-09-09T10:26:42;7;7;
46573;PMS5003;32299;53.366;-1.544;2022-09-09T10:29:20;6;6;
46573;PMS5003;32299;53.366;-1.544;2022-09-09T10:32:00;7;7;
46573;PMS5003;32299;53.366;-1.544;2022-09-09T10:34:46;7;7;
46573;PMS5003;32299;53.366;-1.544;2022-09-09T10:37:25;9;8;
46573;PMS5003;32299;53.366;-1.544;2022-09-09T10:40:04;7;5;
46573;PMS5003;32299;53.366;-1.544;2022-09-09T10:42:41;9;7;
46573;PMS5003;32299;53.366;-1.544;2022-09-09T10:45:15;10;8;
46573;PMS5003;32299;53.366;-1.544;2022-09-09T10:47:49;6;6;
46573;PMS5003;32299;53.366;-1.544;2022-09-09T10:50:29;8;6;
46573;PMS5003;32299;53.366;-1.544;2022-09-09T10:53:08;5;5;
46573;PMS5003;32299;53.366;-1.544;2022-09-09T10:55:41;12;6;
46573;PMS5003;32299;53.366;-1.544;2022-09-09T10:58:12;9;7;
46573;PMS5003;32299;53.366;-1.544;2022-09-09T11:00:46;7;6;
46573;PMS5003;32299;53.366;-1.544;2022-09-09T11:03:18;7;7;
46573;PMS5003;32299;53.366;-1.544;2022-09-09T11:05:49;9;7;
46573;PMS5003;32299;53.366;-1.544;2022-09-09T11:08:23;6;6;
46573;PMS5003;32299;53.366;-1.544;2022-09-09T11:10:55;7;7;
46573;PMS5003;32299;53.366;-1.544;2022-09-09T11:13:29;10;7;
46573;PMS5003;32299;53.366;-1.544;2022-09-09T11:16:05;6;5;
46573;PMS5003;32299;53.366;-1.544;2022-09-09T11:18:42;7;6;
46573;PMS5003;32299;53.366;-1.544;2022-09-09T11:21:15;19;8;
46573;PMS5003;32299;53.366;-1.544;2022-09-09T11:23:52;7;5;
46573;PMS5003;32299;53.366;-1.544;2022-09-09T11:26:26;4;4;
46573;PMS5003;32299;53.366;-1.544;2022-09-09T11:29:02;4;4;
46573;PMS5003;32299;53.366;-1.544;2022-09-09T11:31:50;8;6;
46573;PMS5003;32299;53.366;-1.544;2022-09-09T11:34:30;7;5;
46573;PMS5003;32299;53.366;-1.544;2022-09-09T11:37:14;4;3;
46573;PMS5003;32299;53.366;-1.544;2022-09-09T11:39:53;6;5;
46573;PMS5003;32299;53.366;-1.544;2022-09-09T11:42:34;5;4;
46573;PMS5003;32299;53.366;-1.544;2022-09-09T11:45:10;5;4;
46573;PMS5003;32299;53.366;-1.544;2022-09-09T11:47:51;2;2;
46573;PMS5003;32299;53.366;-1.544;2022-09-09T11:50:35;4;3;
46573;PMS5003;32299;53.366;-1.544;2022-09-09T11:53:05;4;3;
46573;PMS5003;32299;53.366;-1.544;2022-09-09T11:56:06;6;5;
46573;PMS5003;32299;53.366;-1.544;2022-09-09T11:58:39;8;5;
46573;PMS5003;32299;53.366;-1.544;2022-09-09T12:01:25;8;6;
46573;PMS5003;32299;53.366;-1.544;2022-09-09T12:04:06;6;5;
46573;PMS5003;32299;53.366;-1.544;2022-09-09T12:06:42;6;4;
46573;PMS5003;32299;53.366;-1.544;2022-09-09T12:09:30;4;4;
46573;PMS5003;32299;53.366;-1.544;2022-09-09T12:12:06;3;3;
46573;PMS5003;32299;53.366;-1.544;2022-09-09T12:14:55;5;5;
46573;PMS5003;32299;53.366;-1.544;2022-09-09T12:17:25;7;6;
46573;PMS5003;32299;53.366;-1.544;2022-09-09T12:20:02;5;4;
46573;PMS5003;32299;53.366;-1.544;2022-09-09T12:22:37;3;3;
46573;PMS5003;32299;53.366;-1.544;2022-09-09T12:25:16;5;4;
46573;PMS5003;32299;53.366;-1.544;2022-09-09T12:27:58;3;3;
46573;PMS5003;32299;53.366;-1.544;2022-09-09T12:30:32;4;4;
46573;PMS5003;32299;53.366;-1.544;2022-09-09T12:33:08;3;2;
46573;PMS5003;32299;53.366;-1.544;2022-09-09T12:35:38;3;2;
46573;PMS5003;32299;53.366;-1.544;2022-09-09T12:38:10;4;4;
46573;PMS5003;32299;53.366;-1.544;2022-09-09T12:40:42;3;3;
46573;PMS5003;32299;53.366;-1.544;2022-09-09T12:43:20;3;3;
46573;PMS5003;32299;53.366;-1.544;2022-09-09T12:45:49;4;4;
46573;PMS5003;32299;53.366;-1.544;2022-09-09T12:48:21;5;5;
46573;PMS5003;32299;53.366;-1.544;2022-09-09T12:50:55;4;3;
46573;PMS5003;32299;53.366;-1.544;2022-09-09T12:53:24;3;3;
46573;PMS5003;32299;53.366;-1.544;2022-09-09T12:55:55;8;4;
46573;PMS5003;32299;53.366;-1.544;2022-09-09T12:58:25;3;3;
46573;PMS5003;32299;53.366;-1.544;2022-09-09T13:00:53;4;4;
46573;PMS5003;32299;53.366;-1.544;2022-09-09T13:03:21;4;3;
46573;PMS5003;32299;53.366;-1.544;2022-09-09T13:05:49;3;3;
46573;PMS5003;32299;53.366;-1.544;2022-09-09T13:08:17;4;4;
46573;PMS5003;32299;53.366;-1.544;2022-09-09T13:10:46;2;2;
46573;PMS5003;32299;53.366;-1.544;2022-09-09T13:13:17;1;1;
46573;PMS5003;32299;53.366;-1.544;2022-09-09T13:15:49;1;1;
46573;PMS5003;32299;53.366;-1.544;2022-09-09T13:18:20;1;1;
46573;PMS5003;32299;53.366;-1.544;2022-09-09T13:20:49;3;1;
46573;PMS5003;32299;53.366;-1.544;2022-09-09T13:23:18;2;0;
46573;PMS5003;32299;53.366;-1.544;2022-09-09T13:25:54;0;0;
46573;PMS5003;32299;53.366;-1.544;2022-09-09T13:28:23;3;1;
46573;PMS5003;32299;53.366;-1.544;2022-09-09T13:30:56;0;0;
46573;PMS5003;32299;53.366;-1.544;2022-09-09T13:33:29;0;0;
46573;PMS5003;32299;53.366;-1.544;2022-09-09T13:35:57;1;1;
46573;PMS5003;32299;53.366;-1.544;2022-09-09T13:38:28;3;1;
46573;PMS5003;32299;53.366;-1.544;2022-09-09T13:40:57;2;2;
46573;PMS5003;32299;53.366;-1.544;2022-09-09T13:43:27;3;1;
46573;PMS5003;32299;53.366;-1.544;2022-09-09T13:45:57;1;1;
46573;PMS5003;32299;53.366;-1.544;2022-09-09T13:48:26;1;1;
46573;PMS5003;32299;53.366;-1.544;2022-09-09T13:50:55;2;2;
46573;PMS5003;32299;53.366;-1.544;2022-09-09T13:53:25;1;1;
46573;PMS5003;32299;53.366;-1.544;2022-09-09T13:55:52;0;0;
46573;PMS5003;32299;53.366;-1.544;2022-09-09T13:58:19;4;1;
46573;PMS5003;32299;53.366;-1.544;2022-09-09T14:00:46;2;2;
46573;PMS5003;32299;53.366;-1.544;2022-09-09T14:03:13;2;2;
46573;PMS5003;32299;53.366;-1.544;2022-09-09T14:05:40;1;1;
46573;PMS5003;32299;53.366;-1.544;2022-09-09T14:08:07;1;1;
46573;PMS5003;32299;53.366;-1.544;2022-09-09T14:10:42;1;1;
46573;PMS5003;32299;53.366;-1.544;2022-09-09T14:13:09;1;1;
46573;PMS5003;32299;53.366;-1.544;2022-09-09T14:15:36;1;1;
46573;PMS5003;32299;53.366;-1.544;2022-09-09T14:18:03;2;1;
46573;PMS5003;32299;53.366;-1.544;2022-09-09T14:20:31;1;1;
46573;PMS5003;32299;53.366;-1.544;2022-09-09T14:22:58;3;1;
46573;PMS5003;32299;53.366;-1.544;2022-09-09T14:25:25;1;1;
46573;PMS5003;32299;53.366;-1.544;2022-09-09T14:27:52;1;1;
46573;PMS5003;32299;53.366;-1.544;2022-09-09T14:30:19;0;0;
46573;PMS5003;32299;53.366;-1.544;2022-09-09T14:32:46;2;0;
46573;PMS5003;32299;53.366;-1.544;2022-09-09T14:35:13;1;1;
46573;PMS5003;32299;53.366;-1.544;2022-09-09T14:37:40;0;0;
46573;PMS5003;32299;53.366;-1.544;2022-09-09T14:40:07;0;0;
46573;PMS5003;32299;53.366;-1.544;2022-09-09T14:42:35;0;0;
46573;PMS5003;32299;53.366;-1.544;2022-09-09T14:45:02;0;0;
46573;PMS5003;32299;53.366;-1.544;2022-09-09T14:47:30;0;0;
46573;PMS5003;32299;53.366;-1.544;2022-09-09T14:49:56;1;1;
46573;PMS5003;32299;53.366;-1.544;2022-09-09T14:52:23;0;0;
46573;PMS5003;32299;53.366;-1.544;2022-09-09T14:54:51;0;0;
46573;PMS5003;32299;53.366;-1.544;2022-09-09T14:57:17;1;1;
46573;PMS5003;32299;53.366;-1.544;2022-09-09T14:59:44;2;0;
46573;PMS5003;32299;53.366;-1.544;2022-09-09T15:02:11;0;0;
46573;PMS5003;32299;53.366;-1.544;2022-09-09T15:04:38;0;0;
46573;PMS5003;32299;53.366;-1.544;2022-09-09T15:07:05;1;1;
46573;PMS5003;32299;53.366;-1.544;2022-09-09T15:09:32;0;0;
46573;PMS5003;32299;53.366;-1.544;2022-09-09T15:11:59;1;1;
46573;PMS5003;32299;53.366;-1.544;2022-09-09T15:14:26;0;0;
46573;PMS5003;32299;53.366;-1.544;2022-09-09T15:16:53;2;0;
46573;PMS5003;32299;53.366;-1.544;2022-09-09T15:19:20;0;0;
46573;PMS5003;32299;53.366;-1.544;2022-09-09T15:21:47;0;0;
46573;PMS5003;32299;53.366;-1.544;2022-09-09T15:24:14;0;0;
46573;PMS5003;32299;53.366;-1.544;2022-09-09T15:26:41;1;1;
46573;PMS5003;32299;53.366;-1.544;2022-09-09T15:29:07;0;0;
46573;PMS5003;32299;53.366;-1.544;2022-09-09T15:31:35;0;0;
46573;PMS5003;32299;53.366;-1.544;2022-09-09T15:34:03;0;0;
46573;PMS5003;32299;53.366;-1.544;2022-09-09T15:36:33;3;1;
46573;PMS5003;32299;53.366;-1.544;2022-09-09T15:39:02;0;0;
46573;PMS5003;32299;53.366;-1.544;2022-09-09T15:41:31;1;0;
46573;PMS5003;32299;53.366;-1.544;2022-09-09T15:43:59;0;0;
46573;PMS5003;32299;53.366;-1.544;2022-09-09T15:46:28;2;0;
46573;PMS5003;32299;53.366;-1.544;2022-09-09T15:48:58;1;0;
46573;PMS5003;32299;53.366;-1.544;2022-09-09T15:51:30;1;1;
46573;PMS5003;32299;53.366;-1.544;2022-09-09T15:53:57;0;0;
46573;PMS5003;32299;53.366;-1.544;2022-09-09T15:56:26;0;0;
46573;PMS5003;32299;53.366;-1.544;2022-09-09T15:58:55;0;0;
46573;PMS5003;32299;53.366;-1.544;2022-09-09T16:01:22;2;0;
46573;PMS5003;32299;53.366;-1.544;2022-09-09T16:03:50;0;0;
46573;PMS5003;32299;53.366;-1.544;2022-09-09T16:06:18;0;0;
46573;PMS5003;32299;53.366;-1.544;2022-09-09T16:08:48;0;0;
46573;PMS5003;32299;53.366;-1.544;2022-09-09T16:11:17;0;0;
46573;PMS5003;32299;53.366;-1.544;2022-09-09T16:13:46;1;0;
46573;PMS5003;32299;53.366;-1.544;2022-09-09T16:16:14;1;1;
46573;PMS5003;32299;53.366;-1.544;2022-09-09T16:18:45;1;1;
46573;PMS5003;32299;53.366;-1.544;2022-09-09T16:21:14;1;0;
46573;PMS5003;32299;53.366;-1.544;2022-09-09T16:23:43;0;0;
46573;PMS5003;32299;53.366;-1.544;2022-09-09T16:26:11;1;1;
46573;PMS5003;32299;53.366;-1.544;2022-09-09T16:28:40;1;1;
46573;PMS5003;32299;53.366;-1.544;2022-09-09T16:31:08;3;1;
46573;PMS5003;32299;53.366;-1.544;2022-09-09T16:33:37;4;1;
46573;PMS5003;32299;53.366;-1.544;2022-09-09T16:36:05;2;1;
46573;PMS5003;32299;53.366;-1.544;2022-09-09T16:38:33;0;0;